sensor_id;sensor_type;location;lat;lon;timestamp;P1;durP1;ratioP1;P2;durP2;ratioP2
70253;SDS011;57649;42.968;1.608;2023-04-22T00:01:46;10.55;;;4.95;;
70253;SDS011;57649;42.968;1.608;2023-04-22T00:04:12;13.23;;;5.20;;
70253;SDS011;57649;42.968;1.608;2023-04-22T00:06:38;11.25;;;5.13;;
70253;SDS011;57649;42.968;1.608;2023-04-22T00:09:04;10.73;;;5.53;;
70253;SDS011;57649;42.968;1.608;2023-04-22T00:11:30;12.98;;;6.15;;
70253;SDS011;57649;42.968;1.608;2023-04-22T00:13:55;7.97;;;5.20;;
70253;SDS011;57649;42.968;1.608;2023-04-22T00:16:20;11.13;;;5.30;;
70253;SDS011;57649;42.968;1.608;2023-04-22T00:18:46;12.55;;;5.28;;
70253;SDS011;57649;42.968;1.608;2023-04-22T00:21:11;11.23;;;5.13;;
70253;SDS011;57649;42.968;1.608;2023-04-22T00:23:37;11.30;;;5.47;;
70253;SDS011;57649;42.968;1.608;2023-04-22T00:26:02;9.52;;;4.93;;
70253;SDS011;57649;42.968;1.608;2023-04-22T00:28:28;13.70;;;5.13;;
70253;SDS011;57649;42.968;1.608;2023-04-22T00:30:53;10.48;;;4.72;;
70253;SDS011;57649;42.968;1.608;2023-04-22T00:33:18;14.05;;;5.20;;
70253;SDS011;57649;42.968;1.608;2023-04-22T00:35:47;14.10;;;5.68;;
70253;SDS011;57649;42.968;1.608;2023-04-22T00:38:12;11.02;;;4.35;;
70253;SDS011;57649;42.968;1.608;2023-04-22T00:40:38;10.98;;;4.80;;
70253;SDS011;57649;42.968;1.608;2023-04-22T00:43:03;7.60;;;4.68;;
70253;SDS011;57649;42.968;1.608;2023-04-22T00:45:29;12.25;;;5.28;;
70253;SDS011;57649;42.968;1.608;2023-04-22T00:47:55;9.98;;;5.00;;
70253;SDS011;57649;42.968;1.608;2023-04-22T00:50:20;12.00;;;5.00;;
70253;SDS011;57649;42.968;1.608;2023-04-22T00:52:46;10.10;;;4.80;;
70253;SDS011;57649;42.968;1.608;2023-04-22T00:55:11;8.13;;;4.60;;
70253;SDS011;57649;42.968;1.608;2023-04-22T00:57:37;12.07;;;5.55;;
70253;SDS011;57649;42.968;1.608;2023-04-22T01:00:03;10.85;;;5.50;;
70253;SDS011;57649;42.968;1.608;2023-04-22T01:02:30;11.02;;;5.00;;
70253;SDS011;57649;42.968;1.608;2023-04-22T01:04:55;16.25;;;5.40;;
70253;SDS011;57649;42.968;1.608;2023-04-22T01:07:21;7.88;;;3.30;;
70253;SDS011;57649;42.968;1.608;2023-04-22T01:09:47;6.18;;;2.50;;
70253;SDS011;57649;42.968;1.608;2023-04-22T01:12:13;9.43;;;2.72;;
70253;SDS011;57649;42.968;1.608;2023-04-22T01:14:38;4.90;;;2.40;;
70253;SDS011;57649;42.968;1.608;2023-04-22T01:17:04;5.10;;;2.17;;
70253;SDS011;57649;42.968;1.608;2023-04-22T01:19:30;4.00;;;2.10;;
70253;SDS011;57649;42.968;1.608;2023-04-22T01:21:57;5.13;;;2.08;;
70253;SDS011;57649;42.968;1.608;2023-04-22T01:24:23;2.83;;;1.67;;
70253;SDS011;57649;42.968;1.608;2023-04-22T01:26:49;4.22;;;1.50;;
70253;SDS011;57649;42.968;1.608;2023-04-22T01:29:14;3.83;;;1.90;;
70253;SDS011;57649;42.968;1.608;2023-04-22T01:31:40;2.95;;;1.65;;
70253;SDS011;57649;42.968;1.608;2023-04-22T01:34:06;4.38;;;2.05;;
70253;SDS011;57649;42.968;1.608;2023-04-22T01:36:31;2.35;;;1.48;;
70253;SDS011;57649;42.968;1.608;2023-04-22T01:38:58;3.15;;;1.30;;
70253;SDS011;57649;42.968;1.608;2023-04-22T01:41:24;3.35;;;1.30;;
70253;SDS011;57649;42.968;1.608;2023-04-22T01:43:50;2.47;;;1.25;;
70253;SDS011;57649;42.968;1.608;2023-04-22T01:46:17;2.60;;;1.38;;
70253;SDS011;57649;42.968;1.608;2023-04-22T01:48:43;2.95;;;1.20;;
70253;SDS011;57649;42.968;1.608;2023-04-22T01:51:14;4.07;;;1.20;;
70253;SDS011;57649;42.968;1.608;2023-04-22T01:53:41;3.40;;;1.15;;
70253;SDS011;57649;42.968;1.608;2023-04-22T01:56:07;2.80;;;1.50;;
70253;SDS011;57649;42.968;1.608;2023-04-22T01:58:32;1.80;;;1.13;;
70253;SDS011;57649;42.968;1.608;2023-04-22T02:00:58;2.78;;;1.20;;
70253;SDS011;57649;42.968;1.608;2023-04-22T02:03:23;2.28;;;1.10;;
70253;SDS011;57649;42.968;1.608;2023-04-22T02:05:49;1.77;;;1.08;;
70253;SDS011;57649;42.968;1.608;2023-04-22T02:08:14;1.90;;;0.75;;
70253;SDS011;57649;42.968;1.608;2023-04-22T02:10:39;1.67;;;1.00;;
70253;SDS011;57649;42.968;1.608;2023-04-22T02:13:05;1.50;;;0.93;;
70253;SDS011;57649;42.968;1.608;2023-04-22T02:15:30;2.33;;;0.90;;
70253;SDS011;57649;42.968;1.608;2023-04-22T02:17:56;3.17;;;1.10;;
70253;SDS011;57649;42.968;1.608;2023-04-22T02:20:21;2.13;;;0.85;;
70253;SDS011;57649;42.968;1.608;2023-04-22T02:22:46;1.77;;;0.77;;
70253;SDS011;57649;42.968;1.608;2023-04-22T02:25:12;2.08;;;0.80;;
70253;SDS011;57649;42.968;1.608;2023-04-22T02:27:38;3.72;;;0.82;;
70253;SDS011;57649;42.968;1.608;2023-04-22T02:30:05;3.28;;;0.82;;
70253;SDS011;57649;42.968;1.608;2023-04-22T02:32:31;2.45;;;0.90;;
70253;SDS011;57649;42.968;1.608;2023-04-22T02:34:56;2.08;;;0.90;;
70253;SDS011;57649;42.968;1.608;2023-04-22T02:37:22;1.45;;;0.60;;
70253;SDS011;57649;42.968;1.608;2023-04-22T02:39:50;1.90;;;0.77;;
70253;SDS011;57649;42.968;1.608;2023-04-22T02:42:15;1.55;;;0.60;;
70253;SDS011;57649;42.968;1.608;2023-04-22T02:44:40;1.92;;;1.15;;
70253;SDS011;57649;42.968;1.608;2023-04-22T02:47:06;1.20;;;0.70;;
70253;SDS011;57649;42.968;1.608;2023-04-22T02:49:31;1.35;;;0.90;;
70253;SDS011;57649;42.968;1.608;2023-04-22T02:51:57;1.40;;;0.70;;
70253;SDS011;57649;42.968;1.608;2023-04-22T02:54:22;1.65;;;0.77;;
70253;SDS011;57649;42.968;1.608;2023-04-22T02:56:48;2.35;;;0.95;;
70253;SDS011;57649;42.968;1.608;2023-04-22T02:59:13;1.88;;;0.70;;
70253;SDS011;57649;42.968;1.608;2023-04-22T03:01:38;0.63;;;0.60;;
70253;SDS011;57649;42.968;1.608;2023-04-22T03:04:04;1.80;;;0.80;;
70253;SDS011;57649;42.968;1.608;2023-04-22T03:06:29;1.42;;;0.80;;
70253;SDS011;57649;42.968;1.608;2023-04-22T03:08:55;2.45;;;0.77;;
70253;SDS011;57649;42.968;1.608;2023-04-22T03:11:20;1.20;;;0.70;;
70253;SDS011;57649;42.968;1.608;2023-04-22T03:13:46;2.45;;;0.82;;
70253;SDS011;57649;42.968;1.608;2023-04-22T03:16:11;1.23;;;0.77;;
70253;SDS011;57649;42.968;1.608;2023-04-22T03:18:37;2.05;;;0.95;;
70253;SDS011;57649;42.968;1.608;2023-04-22T03:21:02;1.48;;;0.70;;
70253;SDS011;57649;42.968;1.608;2023-04-22T03:23:28;0.95;;;0.70;;
70253;SDS011;57649;42.968;1.608;2023-04-22T03:25:53;2.40;;;0.98;;
70253;SDS011;57649;42.968;1.608;2023-04-22T03:28:19;2.78;;;0.80;;
70253;SDS011;57649;42.968;1.608;2023-04-22T03:30:44;1.75;;;0.80;;
70253;SDS011;57649;42.968;1.608;2023-04-22T03:33:10;2.72;;;1.08;;
70253;SDS011;57649;42.968;1.608;2023-04-22T03:35:35;0.73;;;0.70;;
70253;SDS011;57649;42.968;1.608;2023-04-22T03:38:01;1.98;;;0.80;;
70253;SDS011;57649;42.968;1.608;2023-04-22T03:40:26;0.70;;;0.60;;
70253;SDS011;57649;42.968;1.608;2023-04-22T03:42:52;2.28;;;0.60;;
70253;SDS011;57649;42.968;1.608;2023-04-22T03:45:17;1.77;;;0.82;;
70253;SDS011;57649;42.968;1.608;2023-04-22T03:47:42;1.80;;;0.90;;
70253;SDS011;57649;42.968;1.608;2023-04-22T03:50:08;1.98;;;0.93;;
70253;SDS011;57649;42.968;1.608;2023-04-22T03:52:34;1.75;;;0.70;;
70253;SDS011;57649;42.968;1.608;2023-04-22T03:54:59;1.40;;;0.95;;
70253;SDS011;57649;42.968;1.608;2023-04-22T03:57:24;2.00;;;0.80;;
70253;SDS011;57649;42.968;1.608;2023-04-22T03:59:50;1.73;;;0.77;;
70253;SDS011;57649;42.968;1.608;2023-04-22T04:02:15;3.97;;;1.95;;
70253;SDS011;57649;42.968;1.608;2023-04-22T04:04:40;6.22;;;2.00;;
70253;SDS011;57649;42.968;1.608;2023-04-22T04:07:06;4.18;;;1.70;;
70253;SDS011;57649;42.968;1.608;2023-04-22T04:09:32;4.43;;;1.70;;
70253;SDS011;57649;42.968;1.608;2023-04-22T04:11:57;7.55;;;2.40;;
70253;SDS011;57649;42.968;1.608;2023-04-22T04:14:22;7.72;;;2.25;;
70253;SDS011;57649;42.968;1.608;2023-04-22T04:16:48;6.25;;;2.30;;
70253;SDS011;57649;42.968;1.608;2023-04-22T04:19:13;6.18;;;2.50;;
70253;SDS011;57649;42.968;1.608;2023-04-22T04:21:39;10.00;;;2.80;;
70253;SDS011;57649;42.968;1.608;2023-04-22T04:24:04;10.00;;;3.03;;
70253;SDS011;57649;42.968;1.608;2023-04-22T04:26:30;8.70;;;3.05;;
70253;SDS011;57649;42.968;1.608;2023-04-22T04:28:57;8.75;;;3.10;;
70253;SDS011;57649;42.968;1.608;2023-04-22T04:31:23;12.23;;;3.25;;
70253;SDS011;57649;42.968;1.608;2023-04-22T04:33:48;10.05;;;2.92;;
70253;SDS011;57649;42.968;1.608;2023-04-22T04:36:14;9.40;;;3.10;;
70253;SDS011;57649;42.968;1.608;2023-04-22T04:38:40;9.07;;;3.60;;
70253;SDS011;57649;42.968;1.608;2023-04-22T04:41:05;12.52;;;3.95;;
70253;SDS011;57649;42.968;1.608;2023-04-22T04:43:33;13.38;;;3.97;;
70253;SDS011;57649;42.968;1.608;2023-04-22T04:45:59;12.30;;;3.78;;
70253;SDS011;57649;42.968;1.608;2023-04-22T04:48:25;11.95;;;4.57;;
70253;SDS011;57649;42.968;1.608;2023-04-22T04:50:51;14.38;;;4.60;;
70253;SDS011;57649;42.968;1.608;2023-04-22T04:53:18;15.15;;;4.20;;
70253;SDS011;57649;42.968;1.608;2023-04-22T04:55:45;10.73;;;4.10;;
70253;SDS011;57649;42.968;1.608;2023-04-22T04:58:11;12.38;;;3.92;;
70253;SDS011;57649;42.968;1.608;2023-04-22T05:00:36;14.63;;;4.72;;
70253;SDS011;57649;42.968;1.608;2023-04-22T05:03:02;16.77;;;4.38;;
70253;SDS011;57649;42.968;1.608;2023-04-22T05:05:27;19.08;;;6.10;;
70253;SDS011;57649;42.968;1.608;2023-04-22T05:07:53;16.63;;;5.82;;
70253;SDS011;57649;42.968;1.608;2023-04-22T05:10:18;13.20;;;4.68;;
70253;SDS011;57649;42.968;1.608;2023-04-22T05:12:45;20.65;;;6.50;;
70253;SDS011;57649;42.968;1.608;2023-04-22T05:15:11;16.85;;;6.32;;
70253;SDS011;57649;42.968;1.608;2023-04-22T05:17:37;19.98;;;6.10;;
70253;SDS011;57649;42.968;1.608;2023-04-22T05:20:03;23.08;;;6.57;;
70253;SDS011;57649;42.968;1.608;2023-04-22T05:22:29;18.10;;;6.25;;
70253;SDS011;57649;42.968;1.608;2023-04-22T05:24:54;16.65;;;5.85;;
70253;SDS011;57649;42.968;1.608;2023-04-22T05:27:19;16.40;;;5.40;;
70253;SDS011;57649;42.968;1.608;2023-04-22T05:29:45;22.42;;;5.38;;
70253;SDS011;57649;42.968;1.608;2023-04-22T05:32:10;21.85;;;6.50;;
70253;SDS011;57649;42.968;1.608;2023-04-22T05:34:36;21.88;;;6.43;;
70253;SDS011;57649;42.968;1.608;2023-04-22T05:37:02;18.23;;;6.25;;
70253;SDS011;57649;42.968;1.608;2023-04-22T05:39:28;20.15;;;5.95;;
70253;SDS011;57649;42.968;1.608;2023-04-22T05:41:53;21.50;;;6.10;;
70253;SDS011;57649;42.968;1.608;2023-04-22T05:44:19;17.17;;;5.40;;
70253;SDS011;57649;42.968;1.608;2023-04-22T05:46:45;16.75;;;5.15;;
70253;SDS011;57649;42.968;1.608;2023-04-22T05:49:10;17.23;;;5.47;;
70253;SDS011;57649;42.968;1.608;2023-04-22T05:51:36;16.02;;;5.05;;
70253;SDS011;57649;42.968;1.608;2023-04-22T05:54:01;16.23;;;5.75;;
70253;SDS011;57649;42.968;1.608;2023-04-22T05:56:27;18.67;;;5.50;;
70253;SDS011;57649;42.968;1.608;2023-04-22T05:58:52;20.75;;;5.70;;
70253;SDS011;57649;42.968;1.608;2023-04-22T06:01:17;20.90;;;6.15;;
70253;SDS011;57649;42.968;1.608;2023-04-22T06:03:43;19.25;;;5.95;;
70253;SDS011;57649;42.968;1.608;2023-04-22T06:06:08;17.38;;;5.78;;
70253;SDS011;57649;42.968;1.608;2023-04-22T06:08:33;21.77;;;7.63;;
70253;SDS011;57649;42.968;1.608;2023-04-22T06:11:00;21.27;;;6.47;;
70253;SDS011;57649;42.968;1.608;2023-04-22T06:13:26;15.90;;;5.72;;
70253;SDS011;57649;42.968;1.608;2023-04-22T06:15:51;25.10;;;6.85;;
70253;SDS011;57649;42.968;1.608;2023-04-22T06:18:17;26.00;;;6.72;;
70253;SDS011;57649;42.968;1.608;2023-04-22T06:20:42;23.80;;;6.07;;
70253;SDS011;57649;42.968;1.608;2023-04-22T06:23:08;19.00;;;6.65;;
70253;SDS011;57649;42.968;1.608;2023-04-22T06:25:33;22.85;;;6.55;;
70253;SDS011;57649;42.968;1.608;2023-04-22T06:27:59;24.60;;;7.18;;
70253;SDS011;57649;42.968;1.608;2023-04-22T06:30:24;23.98;;;6.97;;
70253;SDS011;57649;42.968;1.608;2023-04-22T06:32:51;22.67;;;7.28;;
70253;SDS011;57649;42.968;1.608;2023-04-22T06:35:16;20.55;;;6.90;;
70253;SDS011;57649;42.968;1.608;2023-04-22T06:37:42;26.20;;;7.47;;
70253;SDS011;57649;42.968;1.608;2023-04-22T06:40:08;24.38;;;6.93;;
70253;SDS011;57649;42.968;1.608;2023-04-22T06:42:34;20.58;;;6.38;;
70253;SDS011;57649;42.968;1.608;2023-04-22T06:44:59;24.08;;;7.13;;
70253;SDS011;57649;42.968;1.608;2023-04-22T06:47:24;22.85;;;6.72;;
70253;SDS011;57649;42.968;1.608;2023-04-22T06:49:50;22.95;;;7.15;;
70253;SDS011;57649;42.968;1.608;2023-04-22T06:52:15;26.75;;;6.78;;
70253;SDS011;57649;42.968;1.608;2023-04-22T06:54:41;24.60;;;7.28;;
70253;SDS011;57649;42.968;1.608;2023-04-22T06:57:06;26.88;;;6.95;;
70253;SDS011;57649;42.968;1.608;2023-04-22T06:59:32;24.73;;;7.68;;
70253;SDS011;57649;42.968;1.608;2023-04-22T07:01:57;27.15;;;7.28;;
70253;SDS011;57649;42.968;1.608;2023-04-22T07:04:23;26.65;;;8.10;;
70253;SDS011;57649;42.968;1.608;2023-04-22T07:06:48;24.95;;;6.47;;
70253;SDS011;57649;42.968;1.608;2023-04-22T07:09:14;28.73;;;7.60;;
70253;SDS011;57649;42.968;1.608;2023-04-22T07:11:39;23.20;;;7.30;;
70253;SDS011;57649;42.968;1.608;2023-04-22T07:14:04;28.70;;;8.80;;
70253;SDS011;57649;42.968;1.608;2023-04-22T07:16:30;23.38;;;7.75;;
70253;SDS011;57649;42.968;1.608;2023-04-22T07:18:55;28.02;;;7.97;;
70253;SDS011;57649;42.968;1.608;2023-04-22T07:21:21;30.02;;;7.32;;
70253;SDS011;57649;42.968;1.608;2023-04-22T07:23:46;26.00;;;6.82;;
70253;SDS011;57649;42.968;1.608;2023-04-22T07:26:12;25.77;;;7.05;;
70253;SDS011;57649;42.968;1.608;2023-04-22T07:28:37;20.88;;;7.90;;
70253;SDS011;57649;42.968;1.608;2023-04-22T07:31:03;24.80;;;7.75;;
70253;SDS011;57649;42.968;1.608;2023-04-22T07:33:28;24.70;;;7.43;;
70253;SDS011;57649;42.968;1.608;2023-04-22T07:35:53;26.60;;;7.57;;
70253;SDS011;57649;42.968;1.608;2023-04-22T07:38:19;16.52;;;5.63;;
70253;SDS011;57649;42.968;1.608;2023-04-22T07:40:44;24.92;;;6.63;;
70253;SDS011;57649;42.968;1.608;2023-04-22T07:43:10;23.30;;;6.50;;
70253;SDS011;57649;42.968;1.608;2023-04-22T07:45:35;25.92;;;7.10;;
70253;SDS011;57649;42.968;1.608;2023-04-22T07:48:01;25.60;;;6.63;;
70253;SDS011;57649;42.968;1.608;2023-04-22T07:50:27;24.45;;;7.07;;
70253;SDS011;57649;42.968;1.608;2023-04-22T07:52:52;24.48;;;7.07;;
70253;SDS011;57649;42.968;1.608;2023-04-22T07:55:17;23.15;;;7.40;;
70253;SDS011;57649;42.968;1.608;2023-04-22T07:57:43;24.17;;;7.80;;
70253;SDS011;57649;42.968;1.608;2023-04-22T08:00:08;21.42;;;7.15;;
70253;SDS011;57649;42.968;1.608;2023-04-22T08:02:34;27.23;;;7.03;;
70253;SDS011;57649;42.968;1.608;2023-04-22T08:04:59;27.45;;;7.75;;
70253;SDS011;57649;42.968;1.608;2023-04-22T08:07:25;26.55;;;6.85;;
70253;SDS011;57649;42.968;1.608;2023-04-22T08:09:51;20.80;;;6.38;;
70253;SDS011;57649;42.968;1.608;2023-04-22T08:12:16;18.33;;;6.10;;
70253;SDS011;57649;42.968;1.608;2023-04-22T08:14:42;27.77;;;6.82;;
70253;SDS011;57649;42.968;1.608;2023-04-22T08:17:07;17.98;;;7.45;;
70253;SDS011;57649;42.968;1.608;2023-04-22T08:19:33;18.63;;;7.50;;
70253;SDS011;57649;42.968;1.608;2023-04-22T08:21:58;22.20;;;7.72;;
70253;SDS011;57649;42.968;1.608;2023-04-22T08:24:24;20.95;;;6.35;;
70253;SDS011;57649;42.968;1.608;2023-04-22T08:26:49;18.20;;;6.55;;
70253;SDS011;57649;42.968;1.608;2023-04-22T08:29:15;26.67;;;7.75;;
70253;SDS011;57649;42.968;1.608;2023-04-22T08:31:40;22.75;;;7.20;;
70253;SDS011;57649;42.968;1.608;2023-04-22T08:34:06;21.10;;;7.70;;
70253;SDS011;57649;42.968;1.608;2023-04-22T08:36:31;18.35;;;6.38;;
70253;SDS011;57649;42.968;1.608;2023-04-22T08:38:57;21.30;;;6.57;;
70253;SDS011;57649;42.968;1.608;2023-04-22T08:41:22;18.10;;;7.45;;
70253;SDS011;57649;42.968;1.608;2023-04-22T08:43:48;25.52;;;7.78;;
70253;SDS011;57649;42.968;1.608;2023-04-22T08:46:14;27.50;;;7.78;;
70253;SDS011;57649;42.968;1.608;2023-04-22T08:48:41;21.13;;;7.47;;
70253;SDS011;57649;42.968;1.608;2023-04-22T08:51:07;19.10;;;7.18;;
70253;SDS011;57649;42.968;1.608;2023-04-22T08:53:32;22.02;;;6.50;;
70253;SDS011;57649;42.968;1.608;2023-04-22T08:55:58;22.88;;;8.40;;
70253;SDS011;57649;42.968;1.608;2023-04-22T08:58:24;22.25;;;9.25;;
70253;SDS011;57649;42.968;1.608;2023-04-22T09:00:53;31.48;;;7.75;;
70253;SDS011;57649;42.968;1.608;2023-04-22T09:03:19;21.13;;;8.77;;
70253;SDS011;57649;42.968;1.608;2023-04-22T09:05:46;19.30;;;7.72;;
70253;SDS011;57649;42.968;1.608;2023-04-22T09:08:15;18.73;;;9.23;;
70253;SDS011;57649;42.968;1.608;2023-04-22T09:10:40;18.67;;;7.40;;
70253;SDS011;57649;42.968;1.608;2023-04-22T09:13:06;16.10;;;7.30;;
70253;SDS011;57649;42.968;1.608;2023-04-22T09:15:31;16.00;;;6.60;;
70253;SDS011;57649;42.968;1.608;2023-04-22T09:17:57;15.57;;;5.97;;
70253;SDS011;57649;42.968;1.608;2023-04-22T09:20:26;13.20;;;6.43;;
70253;SDS011;57649;42.968;1.608;2023-04-22T09:22:53;18.38;;;6.38;;
70253;SDS011;57649;42.968;1.608;2023-04-22T09:25:24;16.92;;;6.18;;
70253;SDS011;57649;42.968;1.608;2023-04-22T09:27:51;21.40;;;6.60;;
70253;SDS011;57649;42.968;1.608;2023-04-22T09:30:25;18.17;;;6.88;;
70253;SDS011;57649;42.968;1.608;2023-04-22T09:32:55;15.32;;;6.43;;
70253;SDS011;57649;42.968;1.608;2023-04-22T09:35:35;20.38;;;7.72;;
70253;SDS011;57649;42.968;1.608;2023-04-22T09:38:02;17.05;;;6.65;;
70253;SDS011;57649;42.968;1.608;2023-04-22T09:40:30;11.65;;;5.57;;
70253;SDS011;57649;42.968;1.608;2023-04-22T09:42:57;13.63;;;6.32;;
70253;SDS011;57649;42.968;1.608;2023-04-22T09:48:10;11.88;;;5.70;;
70253;SDS011;57649;42.968;1.608;2023-04-22T09:50:38;16.00;;;5.68;;
70253;SDS011;57649;42.968;1.608;2023-04-22T09:53:05;12.15;;;6.00;;
70253;SDS011;57649;42.968;1.608;2023-04-22T09:55:33;12.40;;;5.38;;
70253;SDS011;57649;42.968;1.608;2023-04-22T09:58:06;13.80;;;6.03;;
70253;SDS011;57649;42.968;1.608;2023-04-22T10:00:34;17.05;;;6.05;;
70253;SDS011;57649;42.968;1.608;2023-04-22T10:03:01;17.15;;;6.68;;
70253;SDS011;57649;42.968;1.608;2023-04-22T10:05:27;10.75;;;5.72;;
70253;SDS011;57649;42.968;1.608;2023-04-22T10:07:54;13.07;;;5.63;;
70253;SDS011;57649;42.968;1.608;2023-04-22T10:10:20;12.63;;;6.28;;
70253;SDS011;57649;42.968;1.608;2023-04-22T10:12:46;12.05;;;5.93;;
70253;SDS011;57649;42.968;1.608;2023-04-22T10:15:13;12.10;;;6.03;;
70253;SDS011;57649;42.968;1.608;2023-04-22T10:17:38;13.93;;;5.65;;
70253;SDS011;57649;42.968;1.608;2023-04-22T10:20:06;16.33;;;5.97;;
70253;SDS011;57649;42.968;1.608;2023-04-22T10:22:38;14.10;;;6.30;;
70253;SDS011;57649;42.968;1.608;2023-04-22T10:25:10;15.32;;;6.00;;
70253;SDS011;57649;42.968;1.608;2023-04-22T10:27:53;11.80;;;5.60;;
70253;SDS011;57649;42.968;1.608;2023-04-22T10:30:33;12.80;;;6.13;;
70253;SDS011;57649;42.968;1.608;2023-04-22T10:38:33;12.32;;;6.47;;
70253;SDS011;57649;42.968;1.608;2023-04-22T10:40:59;14.80;;;6.55;;
70253;SDS011;57649;42.968;1.608;2023-04-22T10:43:43;18.98;;;6.47;;
70253;SDS011;57649;42.968;1.608;2023-04-22T10:46:55;16.35;;;7.00;;
70253;SDS011;57649;42.968;1.608;2023-04-22T10:49:10;10.68;;;6.25;;
70253;SDS011;57649;42.968;1.608;2023-04-22T10:54:02;18.05;;;7.90;;
70253;SDS011;57649;42.968;1.608;2023-04-22T10:56:28;21.08;;;8.40;;
70253;SDS011;57649;42.968;1.608;2023-04-22T10:58:54;17.70;;;8.70;;
70253;SDS011;57649;42.968;1.608;2023-04-22T11:01:20;21.63;;;8.25;;
70253;SDS011;57649;42.968;1.608;2023-04-22T11:03:45;18.48;;;8.13;;
70253;SDS011;57649;42.968;1.608;2023-04-22T11:06:15;18.92;;;7.95;;
70253;SDS011;57649;42.968;1.608;2023-04-22T11:08:45;15.40;;;7.50;;
70253;SDS011;57649;42.968;1.608;2023-04-22T11:11:12;15.50;;;7.43;;
70253;SDS011;57649;42.968;1.608;2023-04-22T11:13:39;19.15;;;7.78;;
70253;SDS011;57649;42.968;1.608;2023-04-22T11:16:06;16.35;;;7.95;;
70253;SDS011;57649;42.968;1.608;2023-04-22T11:18:32;16.88;;;7.10;;
70253;SDS011;57649;42.968;1.608;2023-04-22T11:21:01;19.30;;;7.47;;
70253;SDS011;57649;42.968;1.608;2023-04-22T11:23:30;18.50;;;7.50;;
70253;SDS011;57649;42.968;1.608;2023-04-22T11:25:59;17.20;;;6.90;;
70253;SDS011;57649;42.968;1.608;2023-04-22T11:28:26;12.73;;;6.90;;
70253;SDS011;57649;42.968;1.608;2023-04-22T11:30:52;16.83;;;7.03;;
70253;SDS011;57649;42.968;1.608;2023-04-22T11:33:25;15.75;;;6.05;;
70253;SDS011;57649;42.968;1.608;2023-04-22T11:35:51;13.73;;;6.32;;
70253;SDS011;57649;42.968;1.608;2023-04-22T11:38:16;14.57;;;6.00;;
70253;SDS011;57649;42.968;1.608;2023-04-22T11:40:42;15.27;;;6.18;;
70253;SDS011;57649;42.968;1.608;2023-04-22T11:43:09;13.98;;;5.78;;
70253;SDS011;57649;42.968;1.608;2023-04-22T11:45:35;14.45;;;6.28;;
70253;SDS011;57649;42.968;1.608;2023-04-22T11:48:03;11.40;;;5.28;;
70253;SDS011;57649;42.968;1.608;2023-04-22T11:50:31;13.30;;;5.65;;
70253;SDS011;57649;42.968;1.608;2023-04-22T11:52:59;16.85;;;6.65;;
70253;SDS011;57649;42.968;1.608;2023-04-22T11:57:55;14.82;;;5.78;;
70253;SDS011;57649;42.968;1.608;2023-04-22T12:00:23;14.37;;;5.67;;
70253;SDS011;57649;42.968;1.608;2023-04-22T12:08:05;18.73;;;6.15;;
70253;SDS011;57649;42.968;1.608;2023-04-22T12:10:39;17.30;;;5.97;;
70253;SDS011;57649;42.968;1.608;2023-04-22T12:13:05;17.60;;;9.15;;
70253;SDS011;57649;42.968;1.608;2023-04-22T12:15:37;18.85;;;9.88;;
70253;SDS011;57649;42.968;1.608;2023-04-22T12:18:04;16.73;;;8.43;;
70253;SDS011;57649;42.968;1.608;2023-04-22T12:20:34;21.55;;;9.48;;
70253;SDS011;57649;42.968;1.608;2023-04-22T12:23:00;25.90;;;16.00;;
70253;SDS011;57649;42.968;1.608;2023-04-22T12:25:26;19.70;;;11.10;;
70253;SDS011;57649;42.968;1.608;2023-04-22T12:27:51;18.88;;;11.45;;
70253;SDS011;57649;42.968;1.608;2023-04-22T12:30:17;17.55;;;9.27;;
70253;SDS011;57649;42.968;1.608;2023-04-22T12:32:42;16.15;;;9.07;;
70253;SDS011;57649;42.968;1.608;2023-04-22T12:35:08;16.75;;;9.98;;
70253;SDS011;57649;42.968;1.608;2023-04-22T12:37:33;18.80;;;9.45;;
70253;SDS011;57649;42.968;1.608;2023-04-22T12:39:59;18.80;;;10.23;;
70253;SDS011;57649;42.968;1.608;2023-04-22T12:42:24;20.88;;;10.10;;
70253;SDS011;57649;42.968;1.608;2023-04-22T12:44:50;20.27;;;10.80;;
70253;SDS011;57649;42.968;1.608;2023-04-22T12:47:15;21.27;;;10.70;;
70253;SDS011;57649;42.968;1.608;2023-04-22T12:49:42;23.60;;;10.48;;
70253;SDS011;57649;42.968;1.608;2023-04-22T12:52:08;19.83;;;9.88;;
70253;SDS011;57649;42.968;1.608;2023-04-22T12:54:34;20.13;;;10.05;;
70253;SDS011;57649;42.968;1.608;2023-04-22T12:56:59;19.15;;;9.88;;
70253;SDS011;57649;42.968;1.608;2023-04-22T12:59:26;21.75;;;9.73;;
70253;SDS011;57649;42.968;1.608;2023-04-22T13:01:52;19.92;;;9.25;;
70253;SDS011;57649;42.968;1.608;2023-04-22T13:04:18;19.83;;;9.55;;
70253;SDS011;57649;42.968;1.608;2023-04-22T13:06:44;18.55;;;10.18;;
70253;SDS011;57649;42.968;1.608;2023-04-22T13:09:10;21.80;;;10.45;;
70253;SDS011;57649;42.968;1.608;2023-04-22T13:11:35;26.40;;;10.98;;
70253;SDS011;57649;42.968;1.608;2023-04-22T13:14:02;20.05;;;8.88;;
70253;SDS011;57649;42.968;1.608;2023-04-22T13:16:27;19.42;;;9.05;;
70253;SDS011;57649;42.968;1.608;2023-04-22T13:18:53;16.88;;;8.98;;
70253;SDS011;57649;42.968;1.608;2023-04-22T13:21:18;17.73;;;9.65;;
70253;SDS011;57649;42.968;1.608;2023-04-22T13:23:44;15.07;;;8.10;;
70253;SDS011;57649;42.968;1.608;2023-04-22T13:26:10;14.70;;;7.93;;
70253;SDS011;57649;42.968;1.608;2023-04-22T13:28:36;12.13;;;8.23;;
70253;SDS011;57649;42.968;1.608;2023-04-22T13:31:01;15.23;;;7.43;;
70253;SDS011;57649;42.968;1.608;2023-04-22T13:33:27;15.15;;;7.68;;
70253;SDS011;57649;42.968;1.608;2023-04-22T13:35:52;11.52;;;6.40;;
70253;SDS011;57649;42.968;1.608;2023-04-22T13:38:17;16.38;;;7.00;;
70253;SDS011;57649;42.968;1.608;2023-04-22T13:40:43;12.57;;;7.32;;
70253;SDS011;57649;42.968;1.608;2023-04-22T13:43:08;13.35;;;6.78;;
70253;SDS011;57649;42.968;1.608;2023-04-22T13:45:34;12.60;;;6.43;;
70253;SDS011;57649;42.968;1.608;2023-04-22T13:48:00;8.50;;;6.30;;
70253;SDS011;57649;42.968;1.608;2023-04-22T13:50:25;9.25;;;5.10;;
70253;SDS011;57649;42.968;1.608;2023-04-22T13:52:51;8.20;;;5.53;;
70253;SDS011;57649;42.968;1.608;2023-04-22T13:55:16;11.93;;;4.55;;
70253;SDS011;57649;42.968;1.608;2023-04-22T13:57:41;7.63;;;4.60;;
70253;SDS011;57649;42.968;1.608;2023-04-22T14:00:07;5.38;;;4.15;;
70253;SDS011;57649;42.968;1.608;2023-04-22T14:02:36;6.88;;;3.83;;
70253;SDS011;57649;42.968;1.608;2023-04-22T14:05:01;4.38;;;3.25;;
70253;SDS011;57649;42.968;1.608;2023-04-22T14:07:29;4.93;;;3.70;;
70253;SDS011;57649;42.968;1.608;2023-04-22T14:09:54;4.20;;;3.45;;
70253;SDS011;57649;42.968;1.608;2023-04-22T14:12:19;4.75;;;3.50;;
70253;SDS011;57649;42.968;1.608;2023-04-22T14:14:45;5.97;;;3.80;;
70253;SDS011;57649;42.968;1.608;2023-04-22T14:17:10;3.95;;;3.15;;
70253;SDS011;57649;42.968;1.608;2023-04-22T14:19:36;4.68;;;3.22;;
70253;SDS011;57649;42.968;1.608;2023-04-22T14:22:03;4.50;;;3.22;;
70253;SDS011;57649;42.968;1.608;2023-04-22T14:24:28;5.72;;;3.65;;
70253;SDS011;57649;42.968;1.608;2023-04-22T14:26:53;4.93;;;3.00;;
70253;SDS011;57649;42.968;1.608;2023-04-22T14:29:22;5.77;;;4.33;;
70253;SDS011;57649;42.968;1.608;2023-04-22T14:31:48;5.25;;;3.67;;
70253;SDS011;57649;42.968;1.608;2023-04-22T14:34:13;5.25;;;3.58;;
70253;SDS011;57649;42.968;1.608;2023-04-22T14:36:39;5.18;;;4.18;;
70253;SDS011;57649;42.968;1.608;2023-04-22T14:39:04;5.32;;;3.72;;
70253;SDS011;57649;42.968;1.608;2023-04-22T14:41:30;5.38;;;4.00;;
70253;SDS011;57649;42.968;1.608;2023-04-22T14:43:55;4.25;;;3.63;;
70253;SDS011;57649;42.968;1.608;2023-04-22T14:46:21;3.75;;;3.15;;
70253;SDS011;57649;42.968;1.608;2023-04-22T14:48:46;4.15;;;3.15;;
70253;SDS011;57649;42.968;1.608;2023-04-22T14:51:11;4.22;;;3.50;;